createdAt,value
2022-07-29T00:02:15.169Z,96013.56
2022-07-29T00:04:45.514Z,95997.69
2022-07-29T00:07:17.818Z,96004.13
2022-07-29T00:09:51.784Z,96012.91
2022-07-29T00:12:26.397Z,95996.50
2022-07-29T00:14:57.389Z,95996.69
2022-07-29T00:17:26.599Z,95990.63
2022-07-29T00:19:55.890Z,96007.31
2022-07-29T00:22:27.539Z,96004.53
2022-07-29T00:24:58.557Z,95997.13
2022-07-29T00:27:29.440Z,96005.44
2022-07-29T00:30:00.127Z,96003.47
2022-07-29T00:32:29.104Z,95971.28
2022-07-29T00:35:16.147Z,96005.59
2022-07-29T00:37:48.152Z,96002.72
2022-07-29T00:40:18.788Z,95992.03
2022-07-29T00:42:53.873Z,95994.28
2022-07-29T00:45:25.243Z,95985.50
2022-07-29T00:47:53.801Z,95990.69
2022-07-29T00:50:24.312Z,95978.88
2022-07-29T00:52:55.551Z,95980.44
2022-07-29T00:55:26.707Z,95988.53
2022-07-29T00:57:57.855Z,95983.00
2022-07-29T01:00:33.494Z,95989.97
2022-07-29T01:03:05.340Z,95983.19
2022-07-29T01:05:50.008Z,95980.91
2022-07-29T01:08:24.076Z,95978.19
2022-07-29T01:10:54.781Z,95983.03
2022-07-29T01:13:25.717Z,95977.06
2022-07-29T01:16:00.876Z,95977.06
2022-07-29T01:18:35.028Z,95976.94
2022-07-29T01:21:20.794Z,95899.13
2022-07-29T01:24:03.092Z,95986.31
2022-07-29T01:26:41.419Z,95981.69
2022-07-29T01:29:19.116Z,95982.84
2022-07-29T01:31:59.187Z,95983.31
2022-07-29T01:34:39.642Z,95981.03
2022-07-29T01:37:15.015Z,95987.72
2022-07-29T01:39:46.057Z,95991.16
2022-07-29T01:42:22.363Z,96001.19
2022-07-29T01:45:00.700Z,96004.31
2022-07-29T01:47:43.504Z,95983.72
2022-07-29T01:50:15.787Z,95998.31
2022-07-29T01:52:50.251Z,95995.28
2022-07-29T01:55:21.358Z,95997.34
2022-07-29T01:57:52.074Z,95998.97
2022-07-29T02:00:22.168Z,95960.47
2022-07-29T02:02:54.094Z,96002.38
2022-07-29T02:05:26.098Z,96008.72
2022-07-29T02:08:00.762Z,96002.22
2022-07-29T02:10:32.568Z,96007.41
2022-07-29T02:13:04.076Z,96012.25
2022-07-29T02:15:36.201Z,95998.81
2022-07-29T02:18:11.274Z,95985.41
2022-07-29T02:20:41.758Z,96001.28
2022-07-29T02:23:14.379Z,95997.38
2022-07-29T02:25:45.583Z,96010.84
2022-07-29T02:28:15.897Z,96005.03
2022-07-29T02:30:48.760Z,96008.91
2022-07-29T02:33:19.827Z,96006.84
2022-07-29T02:35:51.547Z,96001.81
2022-07-29T02:38:39.579Z,96003.94
2022-07-29T02:41:14.910Z,95974.00
2022-07-29T02:43:46.348Z,95957.03
2022-07-29T02:46:28.881Z,96008.16
2022-07-29T02:49:03.659Z,95964.16
2022-07-29T02:51:43.961Z,96003.94
2022-07-29T02:54:24.517Z,95961.41
2022-07-29T02:56:57.005Z,95994.72
2022-07-29T02:59:29.141Z,95996.16
2022-07-29T03:02:02.928Z,95993.88
2022-07-29T03:04:35.084Z,96005.56
2022-07-29T03:07:05.452Z,95941.78
2022-07-29T03:09:35.600Z,96006.50
2022-07-29T03:12:06.223Z,96006.81
2022-07-29T03:14:36.637Z,96004.88
2022-07-29T03:17:09.044Z,96007.66
2022-07-29T03:19:39.499Z,95996.16
2022-07-29T03:22:09.695Z,96018.81
2022-07-29T03:24:40.322Z,96011.72
2022-07-29T03:27:10.205Z,96017.38
2022-07-29T03:29:40.931Z,96024.19
2022-07-29T03:32:23.780Z,96016.09
2022-07-29T03:34:53.568Z,96004.94
2022-07-29T03:37:23.721Z,95959.59
2022-07-29T03:39:53.727Z,95948.75
2022-07-29T03:42:25.216Z,95996.34
2022-07-29T03:44:56.210Z,96002.97
2022-07-29T03:47:49.952Z,95999.94
2022-07-29T03:50:20.975Z,95997.84
2022-07-29T03:52:51.205Z,95982.41
2022-07-29T03:55:22.679Z,96005.25
2022-07-29T03:57:54.632Z,96006.56
2022-07-29T04:00:25.523Z,96006.72
2022-07-29T04:02:56.744Z,96015.59
2022-07-29T04:05:28.037Z,96021.28
2022-07-29T04:07:58.074Z,96025.97
2022-07-29T04:10:30.308Z,96021.28
2022-07-29T04:13:01.812Z,96024.00
2022-07-29T04:15:33.670Z,95892.78
2022-07-29T04:18:05.340Z,96022.06
2022-07-29T04:20:36.918Z,96019.16
2022-07-29T04:23:05.472Z,96009.25
2022-07-29T04:25:34.707Z,96000.53
2022-07-29T04:28:04.867Z,96020.09
2022-07-29T04:30:36.563Z,96007.78
2022-07-29T04:33:09.359Z,96018.78
2022-07-29T04:35:47.050Z,96018.59
2022-07-29T04:38:24.313Z,96016.97
2022-07-29T04:40:53.414Z,96024.72
2022-07-29T04:43:24.530Z,95897.56
2022-07-29T04:45:53.883Z,96031.50
2022-07-29T04:48:28.654Z,96022.09
2022-07-29T04:50:59.167Z,96024.00
2022-07-29T04:53:30.498Z,96019.28
2022-07-29T04:56:03.970Z,96019.13
2022-07-29T04:58:36.764Z,96031.94
2022-07-29T05:01:07.234Z,96023.78
2022-07-29T05:03:38.289Z,96040.97
2022-07-29T05:06:08.355Z,96031.38
2022-07-29T05:08:38.817Z,96033.75
2022-07-29T05:11:14.956Z,96032.63
2022-07-29T05:13:47.207Z,96034.69
2022-07-29T05:16:17.235Z,96030.09
2022-07-29T05:18:49.159Z,96031.22
2022-07-29T05:21:19.374Z,96030.75
2022-07-29T05:23:49.509Z,96030.75
2022-07-29T05:26:19.313Z,96028.75
2022-07-29T05:28:49.559Z,96023.19
2022-07-29T05:31:19.833Z,96021.72
2022-07-29T05:33:51.485Z,96017.81
2022-07-29T05:36:21.622Z,96025.03
2022-07-29T05:38:53.355Z,96029.72
2022-07-29T05:41:24.538Z,96034.56
2022-07-29T05:43:53.506Z,96029.72
2022-07-29T05:46:23.403Z,96040.94
2022-07-29T05:48:54.092Z,96033.97
2022-07-29T05:51:24.284Z,96037.22
2022-07-29T05:53:53.396Z,96039.47
2022-07-29T05:56:23.474Z,95996.63
2022-07-29T05:58:52.552Z,96023.53
2022-07-29T06:01:22.206Z,96003.47
2022-07-29T06:03:54.308Z,96038.91
2022-07-29T06:06:23.908Z,96049.47
2022-07-29T06:08:52.282Z,96047.66
2022-07-29T06:11:23.619Z,96049.16
2022-07-29T06:13:52.355Z,96058.28
2022-07-29T06:16:28.907Z,96059.59
2022-07-29T06:19:02.271Z,96064.69
2022-07-29T06:21:31.441Z,96059.00
2022-07-29T06:24:01.815Z,96049.63
2022-07-29T06:26:39.726Z,96059.31
2022-07-29T06:29:12.204Z,96057.66
2022-07-29T06:31:44.190Z,96061.84
2022-07-29T06:34:15.720Z,96074.84
2022-07-29T06:36:44.402Z,96070.28
2022-07-29T06:39:14.789Z,96064.91
2022-07-29T06:41:43.131Z,96067.50
2022-07-29T06:44:15.139Z,96069.94
2022-07-29T06:46:44.633Z,96072.53
2022-07-29T06:49:15.116Z,96073.88
2022-07-29T06:51:43.321Z,96081.78
2022-07-29T06:54:11.886Z,96086.00
2022-07-29T06:56:43.555Z,96075.47
2022-07-29T06:59:14.892Z,96077.91
2022-07-29T07:01:46.530Z,96081.63
2022-07-29T07:04:18.289Z,96073.28
2022-07-29T07:06:50.762Z,96076.53
2022-07-29T07:09:20.710Z,96049.63
2022-07-29T07:11:50.802Z,96087.34
2022-07-29T07:14:21.051Z,96075.81
2022-07-29T07:16:50.519Z,96072.38
2022-07-29T07:19:25.230Z,96070.50
2022-07-29T07:21:57.951Z,96056.19
2022-07-29T07:24:40.333Z,96061.97
2022-07-29T07:27:45.024Z,96055.63
2022-07-29T07:30:47.059Z,96052.78
2022-07-29T07:33:48.685Z,96023.19
2022-07-29T07:37:01.073Z,96062.13
2022-07-29T07:39:44.535Z,96033.97
2022-07-29T07:42:17.926Z,96055.31
2022-07-29T07:45:12.653Z,96058.81
2022-07-29T07:48:13.599Z,96062.06
2022-07-29T07:51:08.965Z,96014.88
2022-07-29T07:53:51.157Z,96054.72
2022-07-29T07:56:21.880Z,96062.63
2022-07-29T07:58:52.523Z,96078.66
2022-07-29T08:01:24.668Z,96084.44
2022-07-29T08:03:53.828Z,96095.94
2022-07-29T08:06:31.541Z,96087.13
2022-07-29T08:09:27.750Z,96096.19
2022-07-29T08:11:54.712Z,96086.81
2022-07-29T08:14:41.333Z,96089.78
2022-07-29T08:17:43.304Z,96087.81
2022-07-29T08:20:15.286Z,96092.47
2022-07-29T08:22:45.460Z,96082.47
2022-07-29T08:25:21.984Z,96082.16
2022-07-29T08:27:51.927Z,96084.03
2022-07-29T08:30:23.086Z,96088.47
2022-07-29T08:32:55.478Z,96092.06
2022-07-29T08:35:26.013Z,96086.59
2022-07-29T08:37:56.407Z,96045.56
2022-07-29T08:40:33.853Z,96091.56
2022-07-29T08:43:13.462Z,96091.38
2022-07-29T08:45:48.747Z,96086.97
2022-07-29T08:48:27.367Z,96091.16
2022-07-29T08:51:02.409Z,96092.13
2022-07-29T08:53:32.910Z,96072.97
2022-07-29T08:56:05.013Z,96093.28
2022-07-29T08:58:38.214Z,96103.81
2022-07-29T09:01:12.513Z,96105.22
2022-07-29T09:03:44.373Z,96104.88
2022-07-29T09:06:16.919Z,96103.09
2022-07-29T09:08:47.723Z,96101.41
2022-07-29T09:11:19.256Z,96099.72
2022-07-29T09:13:51.190Z,96106.69
2022-07-29T09:16:43.711Z,96110.22
2022-07-29T09:19:23.202Z,96110.31
2022-07-29T09:22:03.472Z,96099.63
2022-07-29T09:24:47.965Z,96114.28
2022-07-29T09:27:28.791Z,96110.13
2022-07-29T09:30:04.427Z,96110.59
2022-07-29T09:32:36.230Z,96104.41
2022-07-29T09:35:22.778Z,96110.25
2022-07-29T09:37:51.707Z,96099.31
2022-07-29T09:40:23.008Z,96064.03
2022-07-29T09:42:54.679Z,96097.56
2022-07-29T09:45:34.404Z,96094.84
2022-07-29T09:48:17.435Z,96097.56
2022-07-29T09:50:50.669Z,96093.81
2022-07-29T09:53:34.677Z,96081.59
2022-07-29T09:56:05.155Z,96080.06
2022-07-29T09:58:37.382Z,96082.69
2022-07-29T10:01:06.418Z,96076.41
2022-07-29T10:03:52.991Z,96074.06
2022-07-29T10:06:24.302Z,96078.31
2022-07-29T10:08:53.639Z,96080.16
2022-07-29T10:11:25.330Z,96081.19
2022-07-29T10:14:21.239Z,96083.59
2022-07-29T10:21:55.059Z,96071.94
2022-07-29T10:24:27.508Z,96067.47
2022-07-29T10:26:57.217Z,96065.31
2022-07-29T10:29:26.140Z,96067.75
2022-07-29T10:32:10.538Z,96066.44
2022-07-29T10:34:51.318Z,96059.88
2022-07-29T10:37:28.002Z,96055.13
2022-07-29T10:40:25.915Z,96051.47
2022-07-29T10:42:57.718Z,96054.25
2022-07-29T10:45:26.228Z,96028.47
2022-07-29T10:48:07.842Z,96045.84
2022-07-29T10:50:57.835Z,96053.69
2022-07-29T10:53:28.014Z,96042.34
2022-07-29T10:56:06.364Z,96039.53
2022-07-29T10:58:34.894Z,96031.22
2022-07-29T11:01:37.178Z,96044.19
2022-07-29T11:04:06.262Z,96036.25
2022-07-29T11:07:09.274Z,96031.28
2022-07-29T11:09:39.656Z,96032.38
2022-07-29T11:12:49.079Z,96028.34
2022-07-29T11:15:22.139Z,96031.44
2022-07-29T11:18:07.751Z,96034.41
2022-07-29T11:20:46.014Z,96036.16
2022-07-29T11:23:33.433Z,96027.22
2022-07-29T11:26:23.716Z,96028.81
2022-07-29T11:28:56.104Z,96020.31
2022-07-29T11:31:36.566Z,96020.25
2022-07-29T11:34:28.056Z,96027.31
2022-07-29T11:37:27.653Z,96027.63
2022-07-29T11:40:15.294Z,96034.28
2022-07-29T11:42:51.818Z,96034.75
2022-07-29T11:45:41.660Z,96031.88
2022-07-29T11:48:31.303Z,96034.94
2022-07-29T11:51:01.650Z,96029.53
2022-07-29T11:53:32.843Z,96025.47
2022-07-29T11:56:02.535Z,96029.63
2022-07-29T11:58:33.254Z,96028.81
2022-07-29T12:01:04.881Z,96024.31
2022-07-29T12:03:36.948Z,96022.63
2022-07-29T12:06:15.089Z,96023.09
2022-07-29T12:08:45.058Z,96025.50
2022-07-29T12:11:20.831Z,96013.81
2022-07-29T12:13:51.928Z,96022.09
2022-07-29T12:16:25.819Z,96022.78
2022-07-29T12:18:59.631Z,96013.22
2022-07-29T12:21:28.705Z,96015.75
2022-07-29T12:24:05.871Z,96010.78
2022-07-29T12:26:40.340Z,96008.34
2022-07-29T12:29:20.147Z,96007.41
2022-07-29T12:32:02.466Z,96011.41
2022-07-29T12:34:31.750Z,95993.75
2022-07-29T12:37:00.045Z,96008.38
2022-07-29T12:39:29.218Z,96008.56
2022-07-29T12:42:04.165Z,96006.84
2022-07-29T12:44:48.086Z,96013.63
2022-07-29T12:47:16.961Z,96003.94
2022-07-29T12:49:45.098Z,96015.13
2022-07-29T12:52:26.835Z,96004.28
2022-07-29T12:54:55.112Z,96002.00
2022-07-29T12:57:23.495Z,96020.44
2022-07-29T13:00:04.208Z,96005.50
2022-07-29T13:02:32.776Z,95994.50
2022-07-29T13:05:02.297Z,96002.75
2022-07-29T13:08:29.490Z,95998.84
2022-07-29T13:10:23.934Z,95989.66
2022-07-29T13:13:07.173Z,95999.09
2022-07-29T13:15:37.003Z,95990.41
2022-07-29T13:18:05.979Z,95983.19
2022-07-29T13:20:34.595Z,95998.59
2022-07-29T13:23:03.149Z,95983.97
2022-07-29T13:25:33.020Z,95979.66
2022-07-29T13:28:01.647Z,95993.94
2022-07-29T13:30:30.135Z,95988.53
2022-07-29T13:32:59.917Z,95960.97
2022-07-29T13:35:30.782Z,95986.47
2022-07-29T13:37:59.008Z,95993.94
2022-07-29T13:40:27.436Z,95988.75
2022-07-29T13:42:55.616Z,95997.03
2022-07-29T13:45:23.900Z,95997.13
2022-07-29T13:47:52.125Z,95979.78
2022-07-29T13:50:21.671Z,95983.56
2022-07-29T13:52:51.480Z,95987.25
2022-07-29T13:55:19.711Z,95978.53
2022-07-29T13:57:48.593Z,95945.78
2022-07-29T14:00:17.427Z,95974.94
2022-07-29T14:02:46.807Z,95972.31
2022-07-29T14:05:16.033Z,95975.56
2022-07-29T14:07:46.532Z,95970.69
2022-07-29T14:10:19.715Z,95968.66
2022-07-29T14:12:48.188Z,95959.09
2022-07-29T14:15:16.488Z,95974.81
2022-07-29T14:17:44.755Z,95967.22
2022-07-29T14:20:12.892Z,95962.91
2022-07-29T14:22:42.684Z,95961.41
2022-07-29T14:25:15.698Z,95950.47
2022-07-29T14:27:44.707Z,95923.38
2022-07-29T14:30:13.823Z,95924.56
2022-07-29T14:32:42.107Z,95963.59
2022-07-29T14:35:10.710Z,95959.13
2022-07-29T14:37:40.280Z,95944.47
2022-07-29T14:40:10.059Z,95959.38
2022-07-29T14:42:39.990Z,95955.81
2022-07-29T14:45:09.544Z,95930.81
2022-07-29T14:47:38.223Z,95946.22
2022-07-29T14:50:07.660Z,95952.38
2022-07-29T14:52:35.865Z,95947.66
2022-07-29T14:55:04.715Z,95967.91
2022-07-29T14:57:33.270Z,95959.97
2022-07-29T15:00:03.954Z,95965.09
2022-07-29T15:02:59.460Z,95937.28
2022-07-29T15:05:21.036Z,95965.34
2022-07-29T15:07:50.280Z,95963.69
2022-07-29T15:10:18.503Z,95959.44
2022-07-29T15:12:47.233Z,95947.06
2022-07-29T15:15:16.961Z,95956.09
2022-07-29T15:17:45.249Z,95947.81
2022-07-29T15:20:14.659Z,95938.25
2022-07-29T15:22:44.017Z,95938.53
2022-07-29T15:25:13.394Z,95937.03
2022-07-29T15:27:43.220Z,95943.25
2022-07-29T15:30:32.867Z,95932.03
2022-07-29T15:33:02.164Z,95926.50
2022-07-29T15:35:30.359Z,95919.63
2022-07-29T15:37:58.562Z,95889.75
2022-07-29T15:40:26.836Z,95915.63
2022-07-29T15:42:55.387Z,95890.66
2022-07-29T15:45:25.186Z,95922.47
2022-07-29T15:47:53.449Z,95924.13
2022-07-29T15:50:22.142Z,95911.06
2022-07-29T15:52:50.373Z,95916.91
2022-07-29T15:55:19.034Z,95910.88
2022-07-29T15:57:47.381Z,95908.47
2022-07-29T16:00:17.563Z,95904.38
2022-07-29T16:02:47.248Z,95905.31
2022-07-29T16:05:15.456Z,95888.34
2022-07-29T16:07:44.550Z,95891.38
2022-07-29T16:10:13.278Z,95881.44
2022-07-29T16:12:41.934Z,95887.22
2022-07-29T16:15:11.090Z,95880.75
2022-07-29T16:17:39.982Z,95884.06
2022-07-29T16:20:10.758Z,95875.56
2022-07-29T16:22:42.030Z,95874.09
2022-07-29T16:25:11.192Z,95859.66
2022-07-29T16:27:39.611Z,95856.06
2022-07-29T16:30:10.117Z,95857.59
2022-07-29T16:32:38.403Z,95850.72
2022-07-29T16:35:09.999Z,95855.78
2022-07-29T16:37:39.242Z,95868.38
2022-07-29T16:40:11.613Z,95876.63
2022-07-29T16:42:47.737Z,95872.66
2022-07-29T16:45:16.804Z,95869.22
2022-07-29T16:47:46.280Z,95877.38
2022-07-29T16:50:15.850Z,95881.00
2022-07-29T16:52:44.097Z,95871.75
2022-07-29T16:55:12.449Z,95872.56
2022-07-29T16:57:42.163Z,95865.34
2022-07-29T17:00:11.804Z,95871.38
2022-07-29T17:02:40.450Z,95863.00
2022-07-29T17:05:12.356Z,95863.28
2022-07-29T17:07:43.014Z,95864.22
2022-07-29T17:10:12.651Z,95856.19
2022-07-29T17:12:41.841Z,95851.00
2022-07-29T17:15:12.023Z,95854.56
2022-07-29T17:17:55.104Z,95859.84
2022-07-29T17:20:23.956Z,95850.22
2022-07-29T17:22:54.019Z,95855.72
2022-07-29T17:25:22.331Z,95841.22
2022-07-29T17:27:50.932Z,95845.44
2022-07-29T17:30:19.513Z,95842.44
2022-07-29T17:32:47.988Z,95844.47
2022-07-29T17:35:35.919Z,95842.41
2022-07-29T17:38:05.626Z,95834.38
2022-07-29T17:40:33.957Z,95843.19
2022-07-29T17:43:02.295Z,95843.13
2022-07-29T17:45:49.334Z,95855.50
2022-07-29T17:48:19.180Z,95850.16
2022-07-29T17:50:48.020Z,95853.03
2022-07-29T17:53:18.514Z,95818.44
2022-07-29T17:55:48.752Z,95856.88
2022-07-29T17:58:17.540Z,95842.44
2022-07-29T18:00:45.988Z,95850.16
2022-07-29T18:03:14.244Z,95842.59
2022-07-29T18:05:43.342Z,95851.91
2022-07-29T18:08:13.743Z,95857.47
2022-07-29T18:10:43.414Z,95856.97
2022-07-29T18:13:12.833Z,95863.06
2022-07-29T18:15:41.463Z,95856.63
2022-07-29T18:18:10.093Z,95863.53
2022-07-29T18:20:38.379Z,95858.31
2022-07-29T18:23:06.596Z,95859.56
2022-07-29T18:25:34.928Z,95845.50
2022-07-29T18:28:05.652Z,95861.25
2022-07-29T18:30:36.788Z,95861.84
2022-07-29T18:33:20.904Z,95856.91
2022-07-29T18:35:51.366Z,95817.13
2022-07-29T18:38:19.906Z,95851.72
2022-07-29T18:40:48.197Z,95819.16
2022-07-29T18:43:17.754Z,95854.91
2022-07-29T18:45:48.025Z,95861.59
2022-07-29T18:48:16.357Z,95866.22
2022-07-29T18:50:44.738Z,95831.63
2022-07-29T18:53:12.869Z,95869.63
2022-07-29T18:55:41.108Z,95873.44
2022-07-29T18:58:09.251Z,95874.59
2022-07-29T19:00:38.833Z,95855.28
2022-07-29T19:03:07.085Z,95877.34
2022-07-29T19:05:35.635Z,95879.94
2022-07-29T19:08:03.913Z,95871.47
2022-07-29T19:10:32.165Z,95882.97
2022-07-29T19:13:00.518Z,95893.41
2022-07-29T19:15:29.223Z,95875.72
2022-07-29T19:18:01.107Z,95889.38
2022-07-29T19:20:29.995Z,95891.78
2022-07-29T19:22:58.593Z,95904.41
2022-07-29T19:25:27.082Z,95919.25
2022-07-29T19:27:56.454Z,95904.56
2022-07-29T19:30:24.732Z,95919.41
2022-07-29T19:32:53.125Z,95917.38
2022-07-29T19:35:25.514Z,95931.50
2022-07-29T19:37:54.286Z,95926.06
2022-07-29T19:40:22.964Z,95929.47
2022-07-29T19:42:51.828Z,95937.91
2022-07-29T19:45:20.715Z,95946.97
2022-07-29T19:47:49.423Z,95942.94
2022-07-29T19:50:18.185Z,95942.13
2022-07-29T19:52:48.248Z,95943.13
2022-07-29T19:55:17.031Z,95947.09
2022-07-29T19:57:47.756Z,95941.66
2022-07-29T20:00:16.692Z,95940.06
2022-07-29T20:02:45.007Z,95949.13
2022-07-29T20:05:14.621Z,95955.69
2022-07-29T20:07:43.838Z,95954.81
2022-07-29T20:10:13.420Z,95945.50
2022-07-29T20:12:42.737Z,95954.38
2022-07-29T20:15:16.347Z,95943.13
2022-07-29T20:17:44.913Z,95944.13
2022-07-29T20:20:13.404Z,95946.75
2022-07-29T20:22:41.690Z,95922.50
2022-07-29T20:25:11.964Z,95949.84
2022-07-29T20:27:42.804Z,95956.50
2022-07-29T20:30:13.454Z,95949.81
2022-07-29T20:32:42.269Z,95952.13
2022-07-29T20:35:12.198Z,95955.91
2022-07-29T20:37:52.263Z,95952.50
2022-07-29T20:40:25.642Z,95912.97
2022-07-29T20:42:55.793Z,95948.91
2022-07-29T20:45:24.563Z,95940.47
2022-07-29T20:47:53.033Z,95942.44
2022-07-29T20:50:24.192Z,95942.63
2022-07-29T20:52:53.331Z,95944.03
2022-07-29T20:55:22.783Z,95942.78
2022-07-29T20:57:53.186Z,95928.59
2022-07-29T21:00:25.772Z,95934.63
2022-07-29T21:02:54.298Z,95942.81
2022-07-29T21:05:22.774Z,95943.78
2022-07-29T21:07:53.386Z,95950.44
2022-07-29T21:10:25.938Z,95953.66
2022-07-29T21:12:54.303Z,95955.66
2022-07-29T21:15:24.122Z,95954.84
2022-07-29T21:18:00.347Z,95945.44
2022-07-29T21:20:29.422Z,95955.84
2022-07-29T21:22:58.287Z,95942.19
2022-07-29T21:25:27.108Z,95941.31
2022-07-29T21:28:13.032Z,95930.84
2022-07-29T21:30:43.233Z,95944.75
2022-07-29T21:33:12.789Z,95943.69
2022-07-29T21:36:10.267Z,95932.38
2022-07-29T21:38:30.222Z,95938.94
2022-07-29T21:40:58.670Z,95933.91
2022-07-29T21:43:29.524Z,95943.53
2022-07-29T21:46:00.504Z,95953.50
2022-07-29T21:48:29.510Z,95990.38
2022-07-29T21:50:58.067Z,96032.66
2022-07-29T21:53:28.155Z,96018.31
2022-07-29T21:55:56.954Z,96023.22
2022-07-29T21:58:25.291Z,96026.00
2022-07-29T22:00:54.099Z,96034.41
2022-07-29T22:03:24.642Z,96041.19
2022-07-29T22:05:54.232Z,96037.31
2022-07-29T22:08:22.403Z,96042.94
2022-07-29T22:10:50.685Z,96003.22
2022-07-29T22:13:18.944Z,96031.47
2022-07-29T22:15:47.358Z,96048.53
2022-07-29T22:18:20.669Z,96023.94
2022-07-29T22:20:50.975Z,96014.25
2022-07-29T22:23:19.147Z,96004.13
2022-07-29T22:25:47.295Z,96033.63
2022-07-29T22:28:15.479Z,96043.63
2022-07-29T22:30:43.686Z,96034.09
2022-07-29T22:33:17.468Z,96044.91
2022-07-29T22:35:48.557Z,96046.44
2022-07-29T22:38:18.946Z,96044.91
2022-07-29T22:40:48.726Z,96040.94
2022-07-29T22:43:18.965Z,96055.56
2022-07-29T22:45:47.370Z,96045.97
2022-07-29T22:48:15.687Z,96048.56
2022-07-29T22:50:44.126Z,96044.16
2022-07-29T22:53:12.395Z,96052.47
2022-07-29T22:55:42.048Z,96044.81
2022-07-29T22:58:10.404Z,96035.13
2022-07-29T23:00:38.813Z,96030.66
2022-07-29T23:03:07.108Z,96023.22
2022-07-29T23:05:35.452Z,96023.41
2022-07-29T23:08:03.750Z,96019.09
2022-07-29T23:10:32.167Z,96027.28
2022-07-29T23:13:01.742Z,96024.22
2022-07-29T23:15:30.002Z,96034.72
2022-07-29T23:17:58.827Z,96038.13
2022-07-29T23:20:27.136Z,96038.03
2022-07-29T23:22:55.351Z,96035.19
2022-07-29T23:25:23.534Z,96010.84
2022-07-29T23:27:51.732Z,96038.94
2022-07-29T23:30:21.308Z,96042.06
2022-07-29T23:32:51.844Z,96033.06
2022-07-29T23:35:20.138Z,95995.03
2022-07-29T23:37:48.740Z,95994.75
2022-07-29T23:40:16.922Z,96033.06
2022-07-29T23:42:45.303Z,96033.66
2022-07-29T23:45:14.603Z,96022.81
2022-07-29T23:47:44.215Z,96015.88
2022-07-29T23:50:13.504Z,96027.56
2022-07-29T23:52:42.262Z,96035.53
2022-07-29T23:55:36.430Z,96025.94
2022-07-29T23:57:59.709Z,96016.69
